sensor_id;sensor_type;location;lat;lon;timestamp;temperature;humidity
11091;DHT22;5599;52.210;21.046;2023-04-24T00:01:45;14.20;1.00
11091;DHT22;5599;52.210;21.046;2023-04-24T00:04:15;14.10;1.00
11091;DHT22;5599;52.210;21.046;2023-04-24T00:06:45;14.20;1.00
11091;DHT22;5599;52.210;21.046;2023-04-24T00:09:17;14.20;1.00
11091;DHT22;5599;52.210;21.046;2023-04-24T00:11:46;14.20;1.00
11091;DHT22;5599;52.210;21.046;2023-04-24T00:14:15;14.10;1.00
11091;DHT22;5599;52.210;21.046;2023-04-24T00:16:44;13.90;1.00
11091;DHT22;5599;52.210;21.046;2023-04-24T00:19:15;13.90;1.00
11091;DHT22;5599;52.210;21.046;2023-04-24T00:21:44;13.90;1.00
11091;DHT22;5599;52.210;21.046;2023-04-24T00:24:13;13.80;1.00
11091;DHT22;5599;52.210;21.046;2023-04-24T00:26:42;13.80;1.00
11091;DHT22;5599;52.210;21.046;2023-04-24T00:29:12;13.70;1.00
11091;DHT22;5599;52.210;21.046;2023-04-24T00:31:41;13.80;1.00
11091;DHT22;5599;52.210;21.046;2023-04-24T00:34:10;13.60;1.00
11091;DHT22;5599;52.210;21.046;2023-04-24T00:36:41;13.60;2.40
11091;DHT22;5599;52.210;21.046;2023-04-24T00:39:11;13.60;1.90
11091;DHT22;5599;52.210;21.046;2023-04-24T00:41:40;13.60;1.10
11091;DHT22;5599;52.210;21.046;2023-04-24T00:44:09;13.60;1.20
11091;DHT22;5599;52.210;21.046;2023-04-24T00:46:38;13.60;4.40
11091;DHT22;5599;52.210;21.046;2023-04-24T00:49:08;13.50;4.50
11091;DHT22;5599;52.210;21.046;2023-04-24T00:51:37;13.50;5.80
11091;DHT22;5599;52.210;21.046;2023-04-24T00:54:09;13.50;5.70
11091;DHT22;5599;52.210;21.046;2023-04-24T00:56:39;13.50;7.00
11091;DHT22;5599;52.210;21.046;2023-04-24T00:59:10;13.50;8.80
11091;DHT22;5599;52.210;21.046;2023-04-24T01:01:40;13.50;10.00
11091;DHT22;5599;52.210;21.046;2023-04-24T01:04:11;13.50;12.40
11091;DHT22;5599;52.210;21.046;2023-04-24T01:06:42;13.60;11.90
11091;DHT22;5599;52.210;21.046;2023-04-24T01:09:15;13.50;10.40
11091;DHT22;5599;52.210;21.046;2023-04-24T01:11:44;13.50;11.20
11091;DHT22;5599;52.210;21.046;2023-04-24T01:14:13;13.60;11.20
11091;DHT22;5599;52.210;21.046;2023-04-24T01:16:43;13.60;11.90
11091;DHT22;5599;52.210;21.046;2023-04-24T01:19:13;13.60;13.00
11091;DHT22;5599;52.210;21.046;2023-04-24T01:21:43;13.60;12.00
11091;DHT22;5599;52.210;21.046;2023-04-24T01:24:14;13.50;13.90
11091;DHT22;5599;52.210;21.046;2023-04-24T01:26:45;13.50;17.00
11091;DHT22;5599;52.210;21.046;2023-04-24T01:29:14;13.50;19.40
11091;DHT22;5599;52.210;21.046;2023-04-24T01:31:43;13.50;22.60
11091;DHT22;5599;52.210;21.046;2023-04-24T01:34:13;13.50;24.50
11091;DHT22;5599;52.210;21.046;2023-04-24T01:36:43;13.50;23.90
11091;DHT22;5599;52.210;21.046;2023-04-24T01:39:15;13.50;22.80
11091;DHT22;5599;52.210;21.046;2023-04-24T01:41:44;13.60;24.30
11091;DHT22;5599;52.210;21.046;2023-04-24T01:44:14;13.50;27.00
11091;DHT22;5599;52.210;21.046;2023-04-24T01:46:43;13.50;27.00
11091;DHT22;5599;52.210;21.046;2023-04-24T01:49:13;13.30;30.20
11091;DHT22;5599;52.210;21.046;2023-04-24T01:51:42;13.30;27.70
11091;DHT22;5599;52.210;21.046;2023-04-24T01:54:11;13.20;28.70
11091;DHT22;5599;52.210;21.046;2023-04-24T01:56:43;13.00;29.50
11091;DHT22;5599;52.210;21.046;2023-04-24T01:59:12;13.00;29.70
11091;DHT22;5599;52.210;21.046;2023-04-24T02:01:42;13.10;28.20
11091;DHT22;5599;52.210;21.046;2023-04-24T02:04:11;13.00;30.10
11091;DHT22;5599;52.210;21.046;2023-04-24T02:06:42;12.90;31.60
11091;DHT22;5599;52.210;21.046;2023-04-24T02:09:11;13.00;29.80
11091;DHT22;5599;52.210;21.046;2023-04-24T02:11:42;12.90;32.20
11091;DHT22;5599;52.210;21.046;2023-04-24T02:14:11;12.80;35.10
11091;DHT22;5599;52.210;21.046;2023-04-24T02:16:40;12.80;39.00
11091;DHT22;5599;52.210;21.046;2023-04-24T02:19:10;12.70;38.40
11091;DHT22;5599;52.210;21.046;2023-04-24T02:21:39;12.60;41.10
11091;DHT22;5599;52.210;21.046;2023-04-24T02:24:08;12.50;43.00
11091;DHT22;5599;52.210;21.046;2023-04-24T02:26:38;12.50;45.10
11091;DHT22;5599;52.210;21.046;2023-04-24T02:29:08;12.40;47.00
11091;DHT22;5599;52.210;21.046;2023-04-24T02:31:38;12.30;44.70
11091;DHT22;5599;52.210;21.046;2023-04-24T02:34:07;12.30;45.20
11091;DHT22;5599;52.210;21.046;2023-04-24T02:36:37;12.30;45.50
11091;DHT22;5599;52.210;21.046;2023-04-24T02:39:08;12.20;50.00
11091;DHT22;5599;52.210;21.046;2023-04-24T02:41:38;12.10;49.70
11091;DHT22;5599;52.210;21.046;2023-04-24T02:44:10;12.10;50.00
11091;DHT22;5599;52.210;21.046;2023-04-24T02:46:39;12.20;52.70
11091;DHT22;5599;52.210;21.046;2023-04-24T02:49:09;12.30;49.80
11091;DHT22;5599;52.210;21.046;2023-04-24T02:51:39;12.30;45.20
11091;DHT22;5599;52.210;21.046;2023-04-24T02:54:09;12.20;45.70
11091;DHT22;5599;52.210;21.046;2023-04-24T02:56:38;12.30;45.80
11091;DHT22;5599;52.210;21.046;2023-04-24T02:59:10;12.30;46.50
11091;DHT22;5599;52.210;21.046;2023-04-24T03:01:39;12.30;49.20
11091;DHT22;5599;52.210;21.046;2023-04-24T03:04:09;12.20;50.50
11091;DHT22;5599;52.210;21.046;2023-04-24T03:06:39;12.20;99.90
11091;DHT22;5599;52.210;21.046;2023-04-24T03:09:08;12.20;99.90
11091;DHT22;5599;52.210;21.046;2023-04-24T03:11:37;12.20;99.90
11091;DHT22;5599;52.210;21.046;2023-04-24T03:14:09;12.20;99.90
11091;DHT22;5599;52.210;21.046;2023-04-24T03:16:39;12.20;99.90
11091;DHT22;5599;52.210;21.046;2023-04-24T03:19:08;12.10;99.90
11091;DHT22;5599;52.210;21.046;2023-04-24T03:21:47;12.10;99.90
11091;DHT22;5599;52.210;21.046;2023-04-24T03:24:16;12.20;1.00
11091;DHT22;5599;52.210;21.046;2023-04-24T03:26:46;12.20;1.00
11091;DHT22;5599;52.210;21.046;2023-04-24T03:29:49;12.20;55.10
11091;DHT22;5599;52.210;21.046;2023-04-24T03:32:24;12.10;50.30
11091;DHT22;5599;52.210;21.046;2023-04-24T03:34:53;12.10;99.90
11091;DHT22;5599;52.210;21.046;2023-04-24T03:37:23;12.10;99.90
11091;DHT22;5599;52.210;21.046;2023-04-24T03:40:06;12.10;99.90
11091;DHT22;5599;52.210;21.046;2023-04-24T03:42:36;12.20;99.90
11091;DHT22;5599;52.210;21.046;2023-04-24T03:45:09;12.10;99.90
11091;DHT22;5599;52.210;21.046;2023-04-24T03:47:45;12.00;99.90
11091;DHT22;5599;52.210;21.046;2023-04-24T03:50:15;12.10;99.90
11091;DHT22;5599;52.210;21.046;2023-04-24T03:52:45;12.30;99.90
11091;DHT22;5599;52.210;21.046;2023-04-24T03:55:28;12.30;99.90
11091;DHT22;5599;52.210;21.046;2023-04-24T03:57:58;12.30;99.90
11091;DHT22;5599;52.210;21.046;2023-04-24T04:00:30;12.40;34.30
11091;DHT22;5599;52.210;21.046;2023-04-24T04:03:20;12.40;18.00
11091;DHT22;5599;52.210;21.046;2023-04-24T04:05:50;12.40;95.00
11091;DHT22;5599;52.210;21.046;2023-04-24T04:08:20;12.40;53.20
11091;DHT22;5599;52.210;21.046;2023-04-24T04:10:50;12.50;7.20
11091;DHT22;5599;52.210;21.046;2023-04-24T04:13:19;12.50;95.70
11091;DHT22;5599;52.210;21.046;2023-04-24T04:15:50;12.60;15.30
11091;DHT22;5599;52.210;21.046;2023-04-24T04:18:20;12.60;1.00
11091;DHT22;5599;52.210;21.046;2023-04-24T04:20:50;12.70;1.00
11091;DHT22;5599;52.210;21.046;2023-04-24T04:23:19;12.80;1.00
11091;DHT22;5599;52.210;21.046;2023-04-24T04:26:04;12.90;1.00
11091;DHT22;5599;52.210;21.046;2023-04-24T04:28:48;13.40;1.00
11091;DHT22;5599;52.210;21.046;2023-04-24T04:31:19;14.50;20.30
11091;DHT22;5599;52.210;21.046;2023-04-24T04:33:49;15.60;4.60
11091;DHT22;5599;52.210;21.046;2023-04-24T04:36:18;16.70;1.00
11091;DHT22;5599;52.210;21.046;2023-04-24T04:38:54;17.80;1.00
11091;DHT22;5599;52.210;21.046;2023-04-24T04:41:41;18.90;1.00
11091;DHT22;5599;52.210;21.046;2023-04-24T04:44:12;19.80;1.00
11091;DHT22;5599;52.210;21.046;2023-04-24T04:46:44;20.60;1.00
11091;DHT22;5599;52.210;21.046;2023-04-24T04:49:39;21.10;1.00
11091;DHT22;5599;52.210;21.046;2023-04-24T04:52:16;21.80;1.00
11091;DHT22;5599;52.210;21.046;2023-04-24T04:54:50;22.70;1.00
11091;DHT22;5599;52.210;21.046;2023-04-24T04:57:22;23.50;1.00
11091;DHT22;5599;52.210;21.046;2023-04-24T04:59:51;24.10;1.00
11091;DHT22;5599;52.210;21.046;2023-04-24T05:02:34;24.50;99.90
11091;DHT22;5599;52.210;21.046;2023-04-24T05:05:05;25.20;99.90
11091;DHT22;5599;52.210;21.046;2023-04-24T05:07:35;25.60;99.90
11091;DHT22;5599;52.210;21.046;2023-04-24T05:10:05;25.70;53.40
11091;DHT22;5599;52.210;21.046;2023-04-24T05:12:35;25.90;1.00
11091;DHT22;5599;52.210;21.046;2023-04-24T05:15:05;25.90;41.70
11091;DHT22;5599;52.210;21.046;2023-04-24T05:17:36;26.30;1.00
11091;DHT22;5599;52.210;21.046;2023-04-24T05:20:06;26.00;1.00
11091;DHT22;5599;52.210;21.046;2023-04-24T05:22:36;26.20;1.00
11091;DHT22;5599;52.210;21.046;2023-04-24T05:25:06;26.60;99.90
11091;DHT22;5599;52.210;21.046;2023-04-24T05:27:58;27.10;1.00
11091;DHT22;5599;52.210;21.046;2023-04-24T05:30:28;27.40;99.90
11091;DHT22;5599;52.210;21.046;2023-04-24T05:32:59;28.40;1.00
11091;DHT22;5599;52.210;21.046;2023-04-24T05:35:30;29.00;1.00
11091;DHT22;5599;52.210;21.046;2023-04-24T05:38:01;29.40;1.00
11091;DHT22;5599;52.210;21.046;2023-04-24T05:40:30;29.70;1.00
11091;DHT22;5599;52.210;21.046;2023-04-24T05:43:00;29.60;99.90
11091;DHT22;5599;52.210;21.046;2023-04-24T05:45:29;29.90;1.00
11091;DHT22;5599;52.210;21.046;2023-04-24T05:48:01;30.50;1.00
11091;DHT22;5599;52.210;21.046;2023-04-24T05:50:31;30.80;56.30
11091;DHT22;5599;52.210;21.046;2023-04-24T05:53:03;31.20;1.00
11091;DHT22;5599;52.210;21.046;2023-04-24T05:55:36;31.20;1.00
11091;DHT22;5599;52.210;21.046;2023-04-24T05:58:06;31.50;99.90
11091;DHT22;5599;52.210;21.046;2023-04-24T06:00:36;31.40;1.00
11091;DHT22;5599;52.210;21.046;2023-04-24T06:03:09;31.50;99.90
11091;DHT22;5599;52.210;21.046;2023-04-24T06:05:39;31.60;99.90
11091;DHT22;5599;52.210;21.046;2023-04-24T06:08:09;32.00;99.90
11091;DHT22;5599;52.210;21.046;2023-04-24T06:10:40;32.30;1.00
11091;DHT22;5599;52.210;21.046;2023-04-24T06:13:10;31.70;1.00
11091;DHT22;5599;52.210;21.046;2023-04-24T06:15:47;31.20;1.00
11091;DHT22;5599;52.210;21.046;2023-04-24T06:18:23;30.60;1.00
11091;DHT22;5599;52.210;21.046;2023-04-24T06:20:52;30.20;99.90
11091;DHT22;5599;52.210;21.046;2023-04-24T06:23:24;30.10;1.00
11091;DHT22;5599;52.210;21.046;2023-04-24T06:25:54;29.20;99.90
11091;DHT22;5599;52.210;21.046;2023-04-24T06:28:23;28.20;68.60
11091;DHT22;5599;52.210;21.046;2023-04-24T06:30:52;28.50;99.90
11091;DHT22;5599;52.210;21.046;2023-04-24T06:33:23;28.90;11.40
11091;DHT22;5599;52.210;21.046;2023-04-24T06:35:53;28.30;99.90
11091;DHT22;5599;52.210;21.046;2023-04-24T06:38:22;28.30;99.90
11091;DHT22;5599;52.210;21.046;2023-04-24T06:40:52;27.90;16.50
11091;DHT22;5599;52.210;21.046;2023-04-24T06:43:21;27.80;99.90
11091;DHT22;5599;52.210;21.046;2023-04-24T06:45:50;27.60;7.70
11091;DHT22;5599;52.210;21.046;2023-04-24T06:48:20;27.90;1.00
11091;DHT22;5599;52.210;21.046;2023-04-24T06:50:51;28.40;1.00
11091;DHT22;5599;52.210;21.046;2023-04-24T06:53:21;27.20;99.90
11091;DHT22;5599;52.210;21.046;2023-04-24T06:55:50;25.90;99.90
11091;DHT22;5599;52.210;21.046;2023-04-24T06:58:19;25.50;1.00
11091;DHT22;5599;52.210;21.046;2023-04-24T07:00:48;25.80;99.90
11091;DHT22;5599;52.210;21.046;2023-04-24T07:03:18;24.80;1.00
11091;DHT22;5599;52.210;21.046;2023-04-24T07:05:48;24.70;1.00
11091;DHT22;5599;52.210;21.046;2023-04-24T07:08:20;25.00;1.00
11091;DHT22;5599;52.210;21.046;2023-04-24T07:10:50;25.00;1.00
11091;DHT22;5599;52.210;21.046;2023-04-24T07:13:20;25.50;1.00
11091;DHT22;5599;52.210;21.046;2023-04-24T07:15:49;25.60;99.90
11091;DHT22;5599;52.210;21.046;2023-04-24T07:18:21;25.40;99.90
11091;DHT22;5599;52.210;21.046;2023-04-24T07:20:51;25.50;99.90
11091;DHT22;5599;52.210;21.046;2023-04-24T07:23:23;25.70;58.70
11091;DHT22;5599;52.210;21.046;2023-04-24T07:25:52;25.70;1.00
11091;DHT22;5599;52.210;21.046;2023-04-24T07:28:22;26.00;1.00
11091;DHT22;5599;52.210;21.046;2023-04-24T07:30:52;26.50;99.90
11091;DHT22;5599;52.210;21.046;2023-04-24T07:33:22;26.90;99.90
11091;DHT22;5599;52.210;21.046;2023-04-24T07:35:52;27.10;1.00
11091;DHT22;5599;52.210;21.046;2023-04-24T07:38:22;27.40;1.00
11091;DHT22;5599;52.210;21.046;2023-04-24T07:40:53;27.80;1.00
11091;DHT22;5599;52.210;21.046;2023-04-24T07:43:23;27.90;1.00
11091;DHT22;5599;52.210;21.046;2023-04-24T07:45:53;27.90;1.00
11091;DHT22;5599;52.210;21.046;2023-04-24T07:48:23;28.30;1.00
11091;DHT22;5599;52.210;21.046;2023-04-24T07:50:54;28.30;1.00
11091;DHT22;5599;52.210;21.046;2023-04-24T07:53:25;27.70;99.90
11091;DHT22;5599;52.210;21.046;2023-04-24T07:55:54;27.30;1.00
11091;DHT22;5599;52.210;21.046;2023-04-24T07:58:24;27.20;99.90
11091;DHT22;5599;52.210;21.046;2023-04-24T08:00:53;27.80;99.90
11091;DHT22;5599;52.210;21.046;2023-04-24T08:03:23;28.40;1.00
11091;DHT22;5599;52.210;21.046;2023-04-24T08:05:52;28.60;1.00
11091;DHT22;5599;52.210;21.046;2023-04-24T08:08:24;28.40;1.00
11091;DHT22;5599;52.210;21.046;2023-04-24T08:10:53;28.70;99.90
11091;DHT22;5599;52.210;21.046;2023-04-24T08:13:23;28.90;1.00
11091;DHT22;5599;52.210;21.046;2023-04-24T08:15:52;28.90;1.00
11091;DHT22;5599;52.210;21.046;2023-04-24T08:18:22;28.30;67.20
11091;DHT22;5599;52.210;21.046;2023-04-24T08:20:51;27.90;99.90
11091;DHT22;5599;52.210;21.046;2023-04-24T08:23:21;27.50;1.00
11091;DHT22;5599;52.210;21.046;2023-04-24T08:25:52;27.40;1.00
11091;DHT22;5599;52.210;21.046;2023-04-24T08:28:22;26.50;99.90
11091;DHT22;5599;52.210;21.046;2023-04-24T08:30:51;25.90;99.90
11091;DHT22;5599;52.210;21.046;2023-04-24T08:33:23;25.90;1.00
11091;DHT22;5599;52.210;21.046;2023-04-24T08:35:53;26.10;2.70
11091;DHT22;5599;52.210;21.046;2023-04-24T08:38:22;26.20;1.00
11091;DHT22;5599;52.210;21.046;2023-04-24T08:40:54;26.20;1.00
11091;DHT22;5599;52.210;21.046;2023-04-24T08:43:23;26.20;1.00
11091;DHT22;5599;52.210;21.046;2023-04-24T08:45:56;25.90;99.90
11091;DHT22;5599;52.210;21.046;2023-04-24T08:48:27;25.60;2.70
11091;DHT22;5599;52.210;21.046;2023-04-24T08:50:59;25.80;99.00
11091;DHT22;5599;52.210;21.046;2023-04-24T08:53:29;25.90;99.90
11091;DHT22;5599;52.210;21.046;2023-04-24T08:56:01;26.40;99.90
11091;DHT22;5599;52.210;21.046;2023-04-24T08:58:31;26.90;1.00
11091;DHT22;5599;52.210;21.046;2023-04-24T09:01:02;27.10;1.00
11091;DHT22;5599;52.210;21.046;2023-04-24T09:03:33;26.90;1.00
11091;DHT22;5599;52.210;21.046;2023-04-24T09:06:03;27.00;1.00
11091;DHT22;5599;52.210;21.046;2023-04-24T09:08:33;26.10;1.00
11091;DHT22;5599;52.210;21.046;2023-04-24T09:11:04;25.90;46.00
11091;DHT22;5599;52.210;21.046;2023-04-24T09:13:33;25.80;1.00
11091;DHT22;5599;52.210;21.046;2023-04-24T09:16:03;25.60;99.90
11091;DHT22;5599;52.210;21.046;2023-04-24T09:18:33;25.70;99.90
11091;DHT22;5599;52.210;21.046;2023-04-24T09:21:04;25.90;1.00
11091;DHT22;5599;52.210;21.046;2023-04-24T09:23:35;25.90;1.00
11091;DHT22;5599;52.210;21.046;2023-04-24T09:26:06;25.40;1.00
11091;DHT22;5599;52.210;21.046;2023-04-24T09:28:38;25.70;99.90
11091;DHT22;5599;52.210;21.046;2023-04-24T09:31:11;26.20;99.90
11091;DHT22;5599;52.210;21.046;2023-04-24T09:33:40;26.80;1.00
11091;DHT22;5599;52.210;21.046;2023-04-24T09:36:27;27.60;1.00
11091;DHT22;5599;52.210;21.046;2023-04-24T09:38:58;28.10;1.00
11091;DHT22;5599;52.210;21.046;2023-04-24T09:41:29;28.40;99.90
11091;DHT22;5599;52.210;21.046;2023-04-24T09:44:11;28.90;1.00
11091;DHT22;5599;52.210;21.046;2023-04-24T09:46:41;28.70;1.00
11091;DHT22;5599;52.210;21.046;2023-04-24T09:49:14;28.20;1.00
11091;DHT22;5599;52.210;21.046;2023-04-24T09:51:44;28.00;1.00
11091;DHT22;5599;52.210;21.046;2023-04-24T09:54:15;28.30;99.90
11091;DHT22;5599;52.210;21.046;2023-04-24T09:56:47;28.40;1.00
11091;DHT22;5599;52.210;21.046;2023-04-24T09:59:18;28.10;99.90
11091;DHT22;5599;52.210;21.046;2023-04-24T10:01:48;28.20;99.90
11091;DHT22;5599;52.210;21.046;2023-04-24T10:04:19;28.00;1.00
11091;DHT22;5599;52.210;21.046;2023-04-24T10:06:49;27.90;99.90
11091;DHT22;5599;52.210;21.046;2023-04-24T10:09:20;27.50;1.00
11091;DHT22;5599;52.210;21.046;2023-04-24T10:11:53;27.40;99.90
11091;DHT22;5599;52.210;21.046;2023-04-24T10:14:23;27.70;1.00
11091;DHT22;5599;52.210;21.046;2023-04-24T10:16:54;27.40;1.00
11091;DHT22;5599;52.210;21.046;2023-04-24T10:19:26;27.50;99.90
11091;DHT22;5599;52.210;21.046;2023-04-24T10:21:56;26.50;99.90
11091;DHT22;5599;52.210;21.046;2023-04-24T10:24:26;26.10;1.00
11091;DHT22;5599;52.210;21.046;2023-04-24T10:26:57;26.00;99.90
11091;DHT22;5599;52.210;21.046;2023-04-24T10:29:27;25.90;79.00
11091;DHT22;5599;52.210;21.046;2023-04-24T10:31:59;25.00;99.90
11091;DHT22;5599;52.210;21.046;2023-04-24T10:34:28;24.80;1.00
11091;DHT22;5599;52.210;21.046;2023-04-24T10:36:58;25.00;1.00
11091;DHT22;5599;52.210;21.046;2023-04-24T10:39:28;25.50;99.90
11091;DHT22;5599;52.210;21.046;2023-04-24T10:41:59;25.90;99.90
11091;DHT22;5599;52.210;21.046;2023-04-24T10:44:36;26.30;1.00
11091;DHT22;5599;52.210;21.046;2023-04-24T10:47:05;26.40;13.40
11091;DHT22;5599;52.210;21.046;2023-04-24T10:49:41;26.70;99.90
11091;DHT22;5599;52.210;21.046;2023-04-24T10:52:11;26.80;1.00
11091;DHT22;5599;52.210;21.046;2023-04-24T10:54:45;26.90;1.00
11091;DHT22;5599;52.210;21.046;2023-04-24T10:57:29;27.00;1.00
11091;DHT22;5599;52.210;21.046;2023-04-24T11:00:13;26.90;99.90
11091;DHT22;5599;52.210;21.046;2023-04-24T11:02:46;26.90;99.50
11091;DHT22;5599;52.210;21.046;2023-04-24T11:05:20;26.90;99.90
11091;DHT22;5599;52.210;21.046;2023-04-24T11:08:11;26.20;1.00
11091;DHT22;5599;52.210;21.046;2023-04-24T11:10:43;26.00;1.00
11091;DHT22;5599;52.210;21.046;2023-04-24T11:13:16;26.20;1.00
11091;DHT22;5599;52.210;21.046;2023-04-24T11:16:12;26.00;1.00
11091;DHT22;5599;52.210;21.046;2023-04-24T11:18:42;26.10;99.90
11091;DHT22;5599;52.210;21.046;2023-04-24T11:21:18;25.90;30.20
11091;DHT22;5599;52.210;21.046;2023-04-24T11:23:48;26.20;99.90
11091;DHT22;5599;52.210;21.046;2023-04-24T11:26:21;26.40;1.00
11091;DHT22;5599;52.210;21.046;2023-04-24T11:28:53;26.30;1.00
11091;DHT22;5599;52.210;21.046;2023-04-24T11:31:39;26.10;99.90
11091;DHT22;5599;52.210;21.046;2023-04-24T11:34:10;25.10;1.00
11091;DHT22;5599;52.210;21.046;2023-04-24T11:36:40;24.80;99.90
11091;DHT22;5599;52.210;21.046;2023-04-24T11:39:09;24.70;99.90
11091;DHT22;5599;52.210;21.046;2023-04-24T11:41:38;24.80;99.90
11091;DHT22;5599;52.210;21.046;2023-04-24T11:44:10;24.50;1.00
11091;DHT22;5599;52.210;21.046;2023-04-24T11:46:39;24.60;1.00
11091;DHT22;5599;52.210;21.046;2023-04-24T11:49:09;24.80;93.40
11091;DHT22;5599;52.210;21.046;2023-04-24T11:51:38;25.10;1.90
11091;DHT22;5599;52.210;21.046;2023-04-24T11:54:19;25.20;1.00
11091;DHT22;5599;52.210;21.046;2023-04-24T11:56:49;24.90;63.50
11091;DHT22;5599;52.210;21.046;2023-04-24T11:59:20;24.50;99.90
11091;DHT22;5599;52.210;21.046;2023-04-24T12:01:50;24.90;1.00
11091;DHT22;5599;52.210;21.046;2023-04-24T12:04:19;25.10;1.00
11091;DHT22;5599;52.210;21.046;2023-04-24T12:07:02;25.20;99.90
11091;DHT22;5599;52.210;21.046;2023-04-24T12:09:42;25.40;1.00
11091;DHT22;5599;52.210;21.046;2023-04-24T12:12:16;25.60;2.20
11091;DHT22;5599;52.210;21.046;2023-04-24T12:14:47;25.80;99.90
11091;DHT22;5599;52.210;21.046;2023-04-24T12:17:17;25.40;99.90
11091;DHT22;5599;52.210;21.046;2023-04-24T12:19:47;25.30;99.90
11091;DHT22;5599;52.210;21.046;2023-04-24T12:22:18;25.30;1.00
11091;DHT22;5599;52.210;21.046;2023-04-24T12:24:58;24.90;99.90
11091;DHT22;5599;52.210;21.046;2023-04-24T12:27:31;24.40;1.00
11091;DHT22;5599;52.210;21.046;2023-04-24T12:30:05;24.60;1.00
11091;DHT22;5599;52.210;21.046;2023-04-24T12:32:34;24.80;99.90
11091;DHT22;5599;52.210;21.046;2023-04-24T12:35:05;25.30;1.00
11091;DHT22;5599;52.210;21.046;2023-04-24T12:37:35;25.10;1.00
11091;DHT22;5599;52.210;21.046;2023-04-24T12:40:06;25.30;1.00
11091;DHT22;5599;52.210;21.046;2023-04-24T12:42:41;25.60;1.00
11091;DHT22;5599;52.210;21.046;2023-04-24T12:45:13;25.40;99.90
11091;DHT22;5599;52.210;21.046;2023-04-24T12:47:44;25.60;99.90
11091;DHT22;5599;52.210;21.046;2023-04-24T12:50:15;25.40;1.00
11091;DHT22;5599;52.210;21.046;2023-04-24T12:52:45;24.90;82.70
11091;DHT22;5599;52.210;21.046;2023-04-24T12:55:14;24.30;22.20
11091;DHT22;5599;52.210;21.046;2023-04-24T12:57:43;23.80;1.00
11091;DHT22;5599;52.210;21.046;2023-04-24T13:00:15;23.40;1.00
11091;DHT22;5599;52.210;21.046;2023-04-24T13:02:46;23.30;99.90
11091;DHT22;5599;52.210;21.046;2023-04-24T13:05:16;23.20;99.90
11091;DHT22;5599;52.210;21.046;2023-04-24T13:07:46;23.20;99.90
11091;DHT22;5599;52.210;21.046;2023-04-24T13:10:15;23.20;1.00
11091;DHT22;5599;52.210;21.046;2023-04-24T13:12:44;23.00;81.50
11091;DHT22;5599;52.210;21.046;2023-04-24T13:15:15;22.90;99.90
11091;DHT22;5599;52.210;21.046;2023-04-24T13:17:45;22.90;1.00
11091;DHT22;5599;52.210;21.046;2023-04-24T13:20:14;23.00;99.90
11091;DHT22;5599;52.210;21.046;2023-04-24T13:22:43;22.90;1.00
11091;DHT22;5599;52.210;21.046;2023-04-24T13:25:13;23.00;1.00
11091;DHT22;5599;52.210;21.046;2023-04-24T13:27:44;23.00;99.90
11091;DHT22;5599;52.210;21.046;2023-04-24T13:30:15;22.90;97.60
11091;DHT22;5599;52.210;21.046;2023-04-24T13:32:44;23.00;99.90
11091;DHT22;5599;52.210;21.046;2023-04-24T13:35:14;23.10;99.90
11091;DHT22;5599;52.210;21.046;2023-04-24T13:37:47;23.10;1.00
11091;DHT22;5599;52.210;21.046;2023-04-24T13:40:18;22.90;1.00
11091;DHT22;5599;52.210;21.046;2023-04-24T13:42:47;23.00;1.00
11091;DHT22;5599;52.210;21.046;2023-04-24T13:45:18;22.80;1.00
11091;DHT22;5599;52.210;21.046;2023-04-24T13:47:52;22.80;99.90
11091;DHT22;5599;52.210;21.046;2023-04-24T13:50:22;22.60;1.00
11091;DHT22;5599;52.210;21.046;2023-04-24T13:52:52;22.40;1.00
11091;DHT22;5599;52.210;21.046;2023-04-24T13:55:21;22.40;99.90
11091;DHT22;5599;52.210;21.046;2023-04-24T13:57:51;22.50;1.00
11091;DHT22;5599;52.210;21.046;2023-04-24T14:00:24;22.60;47.70
11091;DHT22;5599;52.210;21.046;2023-04-24T14:02:54;22.80;99.90
11091;DHT22;5599;52.210;21.046;2023-04-24T14:05:24;22.70;99.90
11091;DHT22;5599;52.210;21.046;2023-04-24T14:07:53;22.80;1.00
11091;DHT22;5599;52.210;21.046;2023-04-24T14:10:24;22.90;1.00
11091;DHT22;5599;52.210;21.046;2023-04-24T14:12:53;23.20;99.90
11091;DHT22;5599;52.210;21.046;2023-04-24T14:15:24;23.40;1.00
11091;DHT22;5599;52.210;21.046;2023-04-24T14:17:53;23.40;99.90
11091;DHT22;5599;52.210;21.046;2023-04-24T14:20:23;23.40;99.90
11091;DHT22;5599;52.210;21.046;2023-04-24T14:22:53;23.50;99.90
11091;DHT22;5599;52.210;21.046;2023-04-24T14:25:22;23.50;1.00
11091;DHT22;5599;52.210;21.046;2023-04-24T14:27:52;23.30;99.90
11091;DHT22;5599;52.210;21.046;2023-04-24T14:30:21;23.10;99.90
11091;DHT22;5599;52.210;21.046;2023-04-24T14:32:52;22.80;99.90
11091;DHT22;5599;52.210;21.046;2023-04-24T14:35:23;22.90;99.90
11091;DHT22;5599;52.210;21.046;2023-04-24T14:37:56;22.90;1.00
11091;DHT22;5599;52.210;21.046;2023-04-24T14:40:26;23.00;63.90
11091;DHT22;5599;52.210;21.046;2023-04-24T14:43:15;23.20;1.00
11091;DHT22;5599;52.210;21.046;2023-04-24T14:45:45;23.30;1.00
11091;DHT22;5599;52.210;21.046;2023-04-24T14:48:15;23.40;99.90
11091;DHT22;5599;52.210;21.046;2023-04-24T14:50:45;23.40;1.00
11091;DHT22;5599;52.210;21.046;2023-04-24T14:53:14;23.50;99.90
11091;DHT22;5599;52.210;21.046;2023-04-24T14:55:44;23.50;99.90
11091;DHT22;5599;52.210;21.046;2023-04-24T14:58:14;23.50;58.90
11091;DHT22;5599;52.210;21.046;2023-04-24T15:00:43;23.40;1.00
11091;DHT22;5599;52.210;21.046;2023-04-24T15:03:12;23.40;1.00
11091;DHT22;5599;52.210;21.046;2023-04-24T15:05:44;23.20;99.90
11091;DHT22;5599;52.210;21.046;2023-04-24T15:08:13;23.20;99.90
11091;DHT22;5599;52.210;21.046;2023-04-24T15:10:43;23.10;1.00
11091;DHT22;5599;52.210;21.046;2023-04-24T15:13:13;23.00;99.90
11091;DHT22;5599;52.210;21.046;2023-04-24T15:15:43;23.00;1.00
11091;DHT22;5599;52.210;21.046;2023-04-24T15:18:13;23.00;78.10
11091;DHT22;5599;52.210;21.046;2023-04-24T15:20:43;23.00;99.90
11091;DHT22;5599;52.210;21.046;2023-04-24T15:23:13;22.90;47.20
11091;DHT22;5599;52.210;21.046;2023-04-24T15:25:43;22.90;1.00
11091;DHT22;5599;52.210;21.046;2023-04-24T15:28:13;22.90;99.90
11091;DHT22;5599;52.210;21.046;2023-04-24T15:30:44;22.90;1.00
11091;DHT22;5599;52.210;21.046;2023-04-24T15:33:13;22.90;99.90
11091;DHT22;5599;52.210;21.046;2023-04-24T15:35:45;22.90;99.90
11091;DHT22;5599;52.210;21.046;2023-04-24T15:38:14;22.80;99.90
11091;DHT22;5599;52.210;21.046;2023-04-24T15:40:44;22.30;99.90
11091;DHT22;5599;52.210;21.046;2023-04-24T15:43:16;22.10;99.90
11091;DHT22;5599;52.210;21.046;2023-04-24T15:45:45;22.00;23.10
11091;DHT22;5599;52.210;21.046;2023-04-24T15:48:18;21.90;99.90
11091;DHT22;5599;52.210;21.046;2023-04-24T15:54:02;21.90;1.00
11091;DHT22;5599;52.210;21.046;2023-04-24T15:56:32;21.80;99.90
11091;DHT22;5599;52.210;21.046;2023-04-24T15:59:02;21.70;99.90
11091;DHT22;5599;52.210;21.046;2023-04-24T16:01:32;21.80;1.00
11091;DHT22;5599;52.210;21.046;2023-04-24T16:04:02;21.80;1.00
11091;DHT22;5599;52.210;21.046;2023-04-24T16:06:31;21.90;99.90